createdAt,value
2023-03-26T00:00:44.187Z,4.10
2023-03-26T00:03:16.729Z,4.87
2023-03-26T00:05:45.719Z,3.73
2023-03-26T00:08:12.425Z,3.63
2023-03-26T00:10:40.708Z,3.43
2023-03-26T00:13:07.613Z,4.30
2023-03-26T00:15:35.658Z,3.93
2023-03-26T00:18:02.767Z,4.20
2023-03-26T00:20:32.681Z,3.70
2023-03-26T00:23:03.832Z,4.03
2023-03-26T00:25:31.960Z,3.83
2023-03-26T00:27:58.461Z,3.93
2023-03-26T00:30:25.427Z,3.70
2023-03-26T00:32:53.719Z,3.30
2023-03-26T00:35:22.312Z,3.90
2023-03-26T00:37:51.737Z,3.30
2023-03-26T00:40:18.576Z,2.70
2023-03-26T00:42:45.020Z,2.80
2023-03-26T00:45:11.888Z,2.83
2023-03-26T00:47:40.050Z,4.00
2023-03-26T00:50:15.424Z,2.00
2023-03-26T00:52:43.876Z,1.70
2023-03-26T00:55:10.465Z,1.73
2023-03-26T00:57:37.470Z,2.63
2023-03-26T01:00:11.146Z,1.67
2023-03-26T01:02:38.139Z,1.43
2023-03-26T01:05:36.732Z,1.87
2023-03-26T01:08:18.676Z,3.00
2023-03-26T01:10:50.957Z,1.37
2023-03-26T01:13:22.833Z,1.20
2023-03-26T01:15:51.282Z,1.33
2023-03-26T01:18:22.411Z,1.83
2023-03-26T01:20:51.036Z,1.27
2023-03-26T01:23:23.964Z,1.37
2023-03-26T01:26:07.381Z,1.30
2023-03-26T01:28:35.402Z,1.00
2023-03-26T01:31:17.283Z,0.90
2023-03-26T01:33:57.199Z,0.90
2023-03-26T01:36:42.537Z,1.10
2023-03-26T01:39:21.383Z,1.50
2023-03-26T01:42:11.897Z,1.40
2023-03-26T01:44:45.172Z,0.93
2023-03-26T01:47:12.756Z,0.80
2023-03-26T01:49:39.230Z,0.90
2023-03-26T01:52:11.858Z,1.17
2023-03-26T01:54:38.812Z,0.80
2023-03-26T01:57:29.801Z,1.20
2023-03-26T02:00:18.015Z,0.80
2023-03-26T02:03:09.975Z,1.20
2023-03-26T02:05:58.937Z,0.93
2023-03-26T02:08:37.751Z,1.30
2023-03-26T02:11:11.517Z,1.00
2023-03-26T02:13:40.441Z,0.80
2023-03-26T02:16:09.809Z,0.90
2023-03-26T02:18:36.626Z,0.93
2023-03-26T02:21:20.550Z,0.93
2023-03-26T02:23:50.676Z,1.10
2023-03-26T02:26:19.593Z,1.07
2023-03-26T02:29:03.956Z,0.97
2023-03-26T02:31:31.993Z,1.40
2023-03-26T02:33:58.720Z,1.37
2023-03-26T02:36:28.157Z,0.63
2023-03-26T02:39:00.159Z,1.17
2023-03-26T02:41:29.158Z,0.90
2023-03-26T02:44:00.224Z,1.03
2023-03-26T02:46:45.668Z,0.70
2023-03-26T02:49:30.910Z,0.97
2023-03-26T02:51:57.944Z,1.13
2023-03-26T02:54:27.514Z,0.90
2023-03-26T02:57:13.209Z,1.00
2023-03-26T02:59:50.272Z,2.80
2023-03-26T03:02:38.498Z,1.40
2023-03-26T03:05:28.448Z,0.87
2023-03-26T03:08:08.291Z,0.80
2023-03-26T03:10:37.990Z,1.20
2023-03-26T03:13:18.127Z,1.30
2023-03-26T03:15:44.898Z,1.03
2023-03-26T03:18:11.324Z,0.90
2023-03-26T03:20:38.070Z,1.30
2023-03-26T03:23:04.506Z,0.90
2023-03-26T03:25:32.440Z,1.07
2023-03-26T03:28:00.308Z,0.80
2023-03-26T03:30:27.107Z,0.80
2023-03-26T03:33:22.815Z,1.07
2023-03-26T03:35:50.335Z,1.00
2023-03-26T03:38:18.025Z,1.37
2023-03-26T03:40:48.094Z,1.60
2023-03-26T03:43:15.392Z,1.20
2023-03-26T03:45:55.101Z,1.07
2023-03-26T03:48:38.128Z,1.00
2023-03-26T03:51:06.864Z,1.10
2023-03-26T03:53:47.244Z,0.90
2023-03-26T03:56:19.371Z,0.87
2023-03-26T03:59:06.218Z,2.00
2023-03-26T04:01:35.152Z,1.00
2023-03-26T04:04:06.984Z,1.30
2023-03-26T04:07:00.198Z,0.90
2023-03-26T04:09:33.791Z,1.27
2023-03-26T04:12:05.177Z,2.10
2023-03-26T04:14:39.404Z,1.00
2023-03-26T04:17:15.551Z,1.20
2023-03-26T04:19:44.204Z,1.27
2023-03-26T04:22:12.798Z,1.10
2023-03-26T04:24:54.584Z,1.00
2023-03-26T04:27:25.445Z,0.90
2023-03-26T04:29:52.263Z,1.00
2023-03-26T04:32:26.838Z,1.27
2023-03-26T04:34:54.640Z,2.10
2023-03-26T04:37:39.652Z,0.97
2023-03-26T04:40:18.315Z,0.90
2023-03-26T04:43:00.027Z,0.97
2023-03-26T04:46:03.256Z,1.13
2023-03-26T04:48:34.493Z,1.10
2023-03-26T04:51:01.587Z,1.23
2023-03-26T04:53:28.231Z,0.90
2023-03-26T04:56:27.410Z,1.20
2023-03-26T04:59:06.154Z,0.90
2023-03-26T05:01:38.099Z,1.33
2023-03-26T05:04:06.162Z,0.97
2023-03-26T05:06:34.389Z,0.87
2023-03-26T05:09:06.996Z,1.47
2023-03-26T05:12:07.285Z,1.10
2023-03-26T05:14:44.666Z,1.00
2023-03-26T05:17:18.785Z,0.90
2023-03-26T05:19:47.167Z,1.40
2023-03-26T05:22:14.146Z,1.03
2023-03-26T05:24:58.854Z,0.90
2023-03-26T05:27:25.627Z,1.60
2023-03-26T05:29:52.138Z,1.20
2023-03-26T05:32:19.018Z,0.90
2023-03-26T05:34:46.627Z,2.43
2023-03-26T05:37:13.720Z,1.10
2023-03-26T05:40:00.667Z,1.03
2023-03-26T05:42:45.973Z,1.20
2023-03-26T05:45:27.427Z,1.37
2023-03-26T05:47:55.818Z,0.73
2023-03-26T05:50:24.769Z,0.80
2023-03-26T05:52:54.586Z,0.90
2023-03-26T05:55:27.696Z,1.10
2023-03-26T05:58:31.596Z,0.90
2023-03-26T06:01:17.127Z,0.87
2023-03-26T06:04:03.742Z,1.17
2023-03-26T06:06:35.533Z,0.90
2023-03-26T06:09:03.035Z,1.30
2023-03-26T06:11:31.801Z,1.10
2023-03-26T06:13:59.257Z,1.20
2023-03-26T06:16:27.987Z,1.10
2023-03-26T06:19:03.179Z,1.43
2023-03-26T06:21:50.971Z,1.33
2023-03-26T06:24:21.753Z,0.77
2023-03-26T06:27:06.551Z,0.90
2023-03-26T06:29:59.684Z,1.40
2023-03-26T06:32:37.388Z,1.07
2023-03-26T06:35:08.748Z,1.43
2023-03-26T06:37:35.306Z,1.00
2023-03-26T06:40:03.333Z,1.10
2023-03-26T06:43:09.509Z,1.10
2023-03-26T06:46:06.354Z,1.33
2023-03-26T06:48:39.358Z,1.40
2023-03-26T06:51:40.605Z,1.17
2023-03-26T06:54:27.506Z,1.10
2023-03-26T06:56:59.762Z,1.30
2023-03-26T07:00:01.729Z,1.30
2023-03-26T07:02:47.156Z,1.33
2023-03-26T07:05:49.040Z,1.10
2023-03-26T07:08:55.388Z,1.33
2023-03-26T07:11:40.307Z,1.87
2023-03-26T07:14:41.924Z,1.10
2023-03-26T07:17:22.025Z,1.43
2023-03-26T07:20:01.370Z,1.23
2023-03-26T07:22:28.293Z,1.37
2023-03-26T07:25:13.331Z,1.47
2023-03-26T07:28:17.899Z,1.40
2023-03-26T07:31:42.219Z,1.17
2023-03-26T07:34:38.502Z,1.57
2023-03-26T07:37:49.595Z,1.57
2023-03-26T07:40:44.447Z,1.40
2023-03-26T07:43:41.205Z,1.97
2023-03-26T07:46:11.273Z,1.60
2023-03-26T07:49:04.496Z,1.53
2023-03-26T07:51:41.290Z,1.63
2023-03-26T07:54:34.094Z,2.17
2023-03-26T07:57:28.421Z,2.03
2023-03-26T08:00:22.099Z,2.30
2023-03-26T08:03:04.670Z,1.77
2023-03-26T08:06:36.705Z,1.37
2023-03-26T08:09:35.616Z,1.60
2023-03-26T08:12:53.489Z,2.30
2023-03-26T08:15:29.517Z,1.40
2023-03-26T08:18:12.704Z,2.00
2023-03-26T08:20:48.024Z,1.20
2023-03-26T08:23:27.817Z,1.57
2023-03-26T08:26:03.368Z,1.47
2023-03-26T08:28:57.461Z,1.30
2023-03-26T08:31:28.895Z,1.37
2023-03-26T08:33:55.529Z,1.53
2023-03-26T08:36:22.014Z,2.70
2023-03-26T08:38:48.461Z,1.20
2023-03-26T08:41:31.150Z,1.37
2023-03-26T08:44:09.460Z,0.80
2023-03-26T08:46:54.275Z,1.27
2023-03-26T08:49:31.850Z,1.17
2023-03-26T08:52:27.138Z,1.57
2023-03-26T08:55:12.453Z,1.90
2023-03-26T08:58:19.569Z,1.30
2023-03-26T09:00:55.856Z,2.23
2023-03-26T09:03:41.402Z,1.63
2023-03-26T09:06:33.102Z,2.53
2023-03-26T09:09:27.292Z,1.63
2023-03-26T09:12:14.878Z,1.57
2023-03-26T09:14:59.790Z,1.40
2023-03-26T09:17:43.243Z,1.93
2023-03-26T09:20:45.381Z,3.43
2023-03-26T09:23:24.520Z,1.47
2023-03-26T09:26:04.730Z,1.33
2023-03-26T09:28:43.659Z,1.77
2023-03-26T09:31:28.828Z,1.40
2023-03-26T09:34:02.999Z,1.43
2023-03-26T09:36:33.783Z,1.43
2023-03-26T09:39:17.494Z,1.63
2023-03-26T09:41:57.673Z,1.20
2023-03-26T09:44:53.632Z,1.20
2023-03-26T09:47:35.473Z,1.63
2023-03-26T09:50:01.901Z,1.20
2023-03-26T09:53:25.066Z,1.40
2023-03-26T09:56:23.086Z,1.10
2023-03-26T09:59:18.200Z,1.00
2023-03-26T10:01:57.967Z,1.13
2023-03-26T10:04:52.607Z,1.10
2023-03-26T10:07:35.710Z,1.70
2023-03-26T10:10:26.157Z,1.53
2023-03-26T10:13:28.147Z,1.23
2023-03-26T10:16:17.143Z,2.27
2023-03-26T10:19:19.146Z,1.60
2023-03-26T10:21:54.622Z,1.27
2023-03-26T10:24:53.008Z,1.20
2023-03-26T10:27:28.228Z,1.20
2023-03-26T10:30:21.649Z,1.43
2023-03-26T10:33:06.486Z,1.70
2023-03-26T10:35:42.190Z,1.07
2023-03-26T10:38:24.629Z,1.00
2023-03-26T10:41:09.263Z,1.50
2023-03-26T10:44:07.417Z,1.13
2023-03-26T10:46:53.626Z,1.93
2023-03-26T10:49:41.422Z,1.13
2023-03-26T10:52:09.973Z,1.57
2023-03-26T10:54:54.152Z,1.07
2023-03-26T10:57:36.233Z,1.60
2023-03-26T11:00:14.779Z,1.47
2023-03-26T11:03:20.173Z,1.00
2023-03-26T11:05:58.113Z,0.90
2023-03-26T11:08:50.769Z,2.00
2023-03-26T11:11:25.545Z,2.00
2023-03-26T11:14:07.953Z,1.20
2023-03-26T11:16:45.841Z,1.30
2023-03-26T11:19:27.651Z,2.13
2023-03-26T11:22:27.344Z,1.23
2023-03-26T11:25:45.167Z,1.23
2023-03-26T11:28:31.003Z,1.33
2023-03-26T11:31:20.053Z,1.47
2023-03-26T11:33:52.766Z,0.80
2023-03-26T11:36:25.195Z,1.23
2023-03-26T11:38:54.010Z,1.30
2023-03-26T11:41:27.661Z,1.53
2023-03-26T11:44:24.527Z,2.40
2023-03-26T11:46:54.375Z,1.07
2023-03-26T11:49:21.642Z,1.33
2023-03-26T11:51:48.727Z,0.90
2023-03-26T11:54:15.409Z,1.40
2023-03-26T11:57:05.410Z,1.27
2023-03-26T11:59:57.603Z,1.30
2023-03-26T12:02:33.943Z,1.50
2023-03-26T12:05:21.744Z,1.17
2023-03-26T12:07:59.737Z,1.13
2023-03-26T12:10:38.162Z,1.20
2023-03-26T12:13:28.589Z,1.20
2023-03-26T12:15:59.419Z,1.07
2023-03-26T12:18:27.746Z,1.43
2023-03-26T12:21:18.752Z,1.60
2023-03-26T12:24:05.116Z,1.30
2023-03-26T12:26:39.529Z,1.20
2023-03-26T12:29:14.596Z,1.70
2023-03-26T12:32:04.387Z,1.20
2023-03-26T12:34:36.177Z,1.60
2023-03-26T12:37:04.523Z,1.57
2023-03-26T12:40:07.305Z,1.20
2023-03-26T12:44:50.058Z,1.50
2023-03-26T12:45:28.234Z,1.40
2023-03-26T12:48:03.066Z,1.10
2023-03-26T12:50:45.598Z,1.40
2023-03-26T12:53:39.800Z,1.50
2023-03-26T12:56:19.864Z,2.10
2023-03-26T12:59:14.420Z,1.77
2023-03-26T13:01:50.693Z,1.30
2023-03-26T13:04:35.193Z,1.73
2023-03-26T13:07:13.423Z,1.43
2023-03-26T13:10:08.473Z,1.40
2023-03-26T13:12:46.166Z,1.30
2023-03-26T13:15:31.063Z,1.20
2023-03-26T13:18:23.994Z,1.50
2023-03-26T13:21:29.391Z,1.60
2023-03-26T13:24:24.589Z,1.27
2023-03-26T13:26:57.428Z,1.33
2023-03-26T13:29:46.333Z,1.27
2023-03-26T13:32:17.391Z,0.83
2023-03-26T13:35:07.140Z,1.00
2023-03-26T13:37:44.631Z,0.93
2023-03-26T13:40:26.499Z,0.70
2023-03-26T13:43:02.509Z,1.43
2023-03-26T13:45:47.274Z,1.20
2023-03-26T13:48:17.504Z,1.10
2023-03-26T13:50:52.414Z,0.90
2023-03-26T13:53:24.035Z,1.00
2023-03-26T13:55:53.861Z,1.23
2023-03-26T13:58:34.780Z,0.80
2023-03-26T14:01:08.076Z,1.00
2023-03-26T14:03:49.895Z,0.93
2023-03-26T14:07:06.394Z,0.80
2023-03-26T14:09:40.804Z,1.90
2023-03-26T14:12:21.310Z,0.80
2023-03-26T14:14:57.269Z,1.20
2023-03-26T14:17:28.009Z,1.40
2023-03-26T14:20:05.145Z,0.77
2023-03-26T14:23:03.143Z,1.07
2023-03-26T14:25:35.194Z,1.63
2023-03-26T14:28:28.588Z,1.10
2023-03-26T14:31:19.426Z,0.97
2023-03-26T14:33:49.567Z,1.30
2023-03-26T14:36:25.871Z,1.87
2023-03-26T14:38:59.118Z,0.80
2023-03-26T14:41:48.839Z,1.47
2023-03-26T14:44:48.549Z,1.00
2023-03-26T14:47:25.832Z,0.93
2023-03-26T14:50:42.473Z,0.87
2023-03-26T14:53:18.845Z,1.10
2023-03-26T14:55:57.809Z,1.10
2023-03-26T14:58:48.643Z,1.30
2023-03-26T15:01:21.200Z,0.90
2023-03-26T15:04:05.792Z,1.00
2023-03-26T15:07:08.262Z,1.03
2023-03-26T15:10:05.913Z,1.10
2023-03-26T15:13:00.389Z,0.90
2023-03-26T15:15:58.031Z,1.07
2023-03-26T15:18:50.576Z,0.77
2023-03-26T15:21:51.051Z,0.77
2023-03-26T15:24:26.943Z,0.80
2023-03-26T15:27:19.382Z,0.87
2023-03-26T15:30:10.272Z,0.70
2023-03-26T15:32:42.493Z,0.73
2023-03-26T15:35:31.664Z,0.90
2023-03-26T15:38:23.169Z,0.83
2023-03-26T15:41:17.504Z,0.83
2023-03-26T15:44:24.475Z,1.00
2023-03-26T15:47:16.629Z,0.80
2023-03-26T15:49:54.011Z,0.97
2023-03-26T15:52:26.380Z,0.93
2023-03-26T15:54:58.281Z,0.80
2023-03-26T15:57:43.908Z,1.10
2023-03-26T16:00:24.716Z,1.00
2023-03-26T16:03:09.563Z,0.77
2023-03-26T16:05:56.555Z,0.90
2023-03-26T16:08:30.753Z,0.70
2023-03-26T16:10:59.077Z,0.73
2023-03-26T16:13:25.606Z,0.67
2023-03-26T16:15:59.927Z,1.17
2023-03-26T16:18:38.449Z,0.77
2023-03-26T16:21:31.163Z,0.70
2023-03-26T16:24:02.217Z,0.43
2023-03-26T16:26:31.517Z,0.70
2023-03-26T16:29:28.467Z,0.50
2023-03-26T16:32:05.863Z,0.60
2023-03-26T16:34:42.564Z,0.57
2023-03-26T16:37:38.264Z,0.60
2023-03-26T16:40:23.441Z,1.10
2023-03-26T16:43:18.762Z,0.40
2023-03-26T16:46:19.090Z,0.70
2023-03-26T16:48:48.407Z,0.70
2023-03-26T16:51:47.416Z,0.40
2023-03-26T16:54:25.338Z,0.67
2023-03-26T16:57:08.851Z,1.57
2023-03-26T17:00:08.013Z,0.70
2023-03-26T17:02:47.930Z,0.50
2023-03-26T17:05:44.664Z,0.70
2023-03-26T17:08:17.778Z,0.60
2023-03-26T17:11:17.056Z,0.90
2023-03-26T17:13:52.124Z,1.47
2023-03-26T17:16:28.605Z,0.90
2023-03-26T17:19:04.299Z,1.20
2023-03-26T17:22:19.920Z,0.50
2023-03-26T17:25:21.543Z,1.13
2023-03-26T17:28:17.477Z,1.40
2023-03-26T17:30:53.743Z,0.90
2023-03-26T17:33:27.851Z,0.70
2023-03-26T17:36:12.678Z,1.03
2023-03-26T17:38:39.186Z,1.07
2023-03-26T17:41:06.837Z,0.50
2023-03-26T17:43:36.271Z,0.90
2023-03-26T17:46:18.760Z,0.73
2023-03-26T17:48:47.077Z,1.20
2023-03-26T17:51:18.587Z,1.03
2023-03-26T17:53:45.128Z,0.93
2023-03-26T17:56:16.502Z,0.70
2023-03-26T17:58:50.671Z,0.80
2023-03-26T18:01:23.846Z,0.77
2023-03-26T18:03:52.735Z,0.80
2023-03-26T18:06:47.239Z,0.80
2023-03-26T18:09:28.850Z,0.80
2023-03-26T18:12:17.756Z,0.80
2023-03-26T18:14:50.149Z,1.20
2023-03-26T18:17:16.613Z,0.43
2023-03-26T18:20:04.019Z,0.80
2023-03-26T18:22:30.475Z,0.50
2023-03-26T18:24:59.742Z,0.70
2023-03-26T18:27:32.972Z,1.30
2023-03-26T18:30:09.235Z,0.83
2023-03-26T18:32:41.022Z,0.80
2023-03-26T18:35:20.297Z,0.77
2023-03-26T18:37:49.116Z,0.90
2023-03-26T18:40:23.895Z,0.60
2023-03-26T18:42:52.470Z,0.67
2023-03-26T18:45:32.026Z,0.77
2023-03-26T18:48:01.585Z,0.90
2023-03-26T18:50:30.977Z,0.70
2023-03-26T18:52:59.995Z,0.77
2023-03-26T18:55:28.172Z,0.83
2023-03-26T18:57:54.686Z,1.00
2023-03-26T19:00:25.966Z,0.90
2023-03-26T19:03:06.520Z,0.97
2023-03-26T19:05:34.205Z,1.03
2023-03-26T19:08:05.331Z,0.93
2023-03-26T19:10:32.998Z,0.80
2023-03-26T19:13:04.180Z,1.00
2023-03-26T19:15:33.006Z,1.10
2023-03-26T19:18:13.817Z,0.70
2023-03-26T19:20:46.247Z,0.77
2023-03-26T19:23:18.657Z,1.47
2023-03-26T19:25:50.645Z,1.23
2023-03-26T19:28:19.137Z,1.13
2023-03-26T19:30:45.919Z,1.07
2023-03-26T19:33:18.339Z,1.23
2023-03-26T19:35:47.448Z,1.07
2023-03-26T19:38:38.210Z,1.23
2023-03-26T19:41:04.919Z,1.00
2023-03-26T19:43:31.471Z,1.10
2023-03-26T19:46:00.165Z,1.03
2023-03-26T19:48:45.881Z,1.10
2023-03-26T19:51:20.166Z,0.97
2023-03-26T19:53:51.437Z,0.70
2023-03-26T19:56:19.144Z,1.20
2023-03-26T19:58:45.859Z,1.13
2023-03-26T20:01:19.959Z,1.30
2023-03-26T20:03:48.544Z,1.73
2023-03-26T20:06:23.706Z,1.60
2023-03-26T20:08:54.665Z,1.17
2023-03-26T20:11:23.515Z,0.90
2023-03-26T20:13:50.357Z,1.20
2023-03-26T20:16:30.616Z,1.43
2023-03-26T20:19:04.518Z,1.30
2023-03-26T20:21:32.445Z,1.23
2023-03-26T20:23:59.181Z,1.80
2023-03-26T20:26:25.689Z,1.50
2023-03-26T20:28:53.374Z,1.50
2023-03-26T20:31:22.680Z,1.80
2023-03-26T20:33:50.522Z,1.80
2023-03-26T20:36:34.193Z,1.60
2023-03-26T20:39:05.436Z,1.50
2023-03-26T20:41:32.622Z,1.57
2023-03-26T20:43:59.093Z,1.73
2023-03-26T20:46:30.980Z,2.00
2023-03-26T20:48:59.389Z,1.50
2023-03-26T20:51:27.874Z,2.20
2023-03-26T20:53:54.589Z,1.60
2023-03-26T20:56:21.768Z,1.93
2023-03-26T20:59:09.943Z,2.00
2023-03-26T21:01:38.087Z,1.50
2023-03-26T21:04:05.264Z,1.80
2023-03-26T21:06:31.860Z,1.93
2023-03-26T21:08:58.672Z,1.80
2023-03-26T21:11:50.209Z,1.80
2023-03-26T21:14:22.391Z,1.20
2023-03-26T21:16:49.261Z,1.00
2023-03-26T21:19:16.181Z,0.90
2023-03-26T21:21:52.658Z,1.10
2023-03-26T21:24:25.132Z,0.47
2023-03-26T21:27:09.930Z,0.60
2023-03-26T21:29:37.145Z,0.40
2023-03-26T21:32:05.397Z,0.50
2023-03-26T21:34:33.579Z,0.47
2023-03-26T21:37:01.466Z,0.60
2023-03-26T21:39:28.844Z,0.40
2023-03-26T21:42:04.237Z,0.50
2023-03-26T21:44:32.186Z,0.40
2023-03-26T21:46:59.056Z,0.57
2023-03-26T21:49:25.979Z,0.33
2023-03-26T21:51:52.705Z,0.40
2023-03-26T21:54:32.769Z,0.40
2023-03-26T21:57:17.558Z,0.30
2023-03-26T22:00:14.398Z,0.30
2023-03-26T22:03:07.219Z,0.30
2023-03-26T22:05:43.880Z,0.50
2023-03-26T22:08:21.839Z,0.20
2023-03-26T22:10:48.292Z,0.30
2023-03-26T22:13:14.752Z,0.30
2023-03-26T22:15:41.257Z,0.20
2023-03-26T22:18:07.777Z,0.30
2023-03-26T22:20:34.458Z,0.20
2023-03-26T22:23:01.760Z,0.20
2023-03-26T22:25:28.330Z,0.20
2023-03-26T22:27:54.916Z,0.30
2023-03-26T22:30:21.790Z,0.30
2023-03-26T22:32:48.577Z,0.30
2023-03-26T22:35:15.438Z,0.10
2023-03-26T22:37:41.949Z,0.30
2023-03-26T22:40:09.082Z,0.30
2023-03-26T22:42:36.281Z,0.47
2023-03-26T22:45:04.029Z,0.40
2023-03-26T22:47:33.601Z,0.20
2023-03-26T22:50:00.587Z,0.30
2023-03-26T22:52:27.256Z,0.33
2023-03-26T22:54:53.699Z,0.40
2023-03-26T22:57:21.588Z,0.47
2023-03-26T22:59:48.034Z,0.70
2023-03-26T23:02:16.468Z,0.50
2023-03-26T23:04:43.978Z,0.70
2023-03-26T23:07:10.728Z,0.50
2023-03-26T23:09:37.208Z,0.63
2023-03-26T23:12:04.418Z,0.60
2023-03-26T23:14:32.363Z,0.80
2023-03-26T23:16:59.081Z,0.70
2023-03-26T23:19:25.706Z,1.03
2023-03-26T23:21:52.373Z,0.90
2023-03-26T23:24:18.885Z,1.30
2023-03-26T23:26:50.630Z,1.17
2023-03-26T23:29:18.265Z,1.23
2023-03-26T23:31:44.819Z,1.17
2023-03-26T23:34:13.346Z,0.97
2023-03-26T23:36:40.785Z,0.93
2023-03-26T23:39:09.384Z,1.00
2023-03-26T23:41:36.642Z,1.17
2023-03-26T23:44:03.782Z,1.10
2023-03-26T23:46:33.032Z,1.20
2023-03-26T23:49:02.169Z,1.10
2023-03-26T23:51:30.185Z,1.57
2023-03-26T23:53:57.051Z,1.40
2023-03-26T23:56:24.019Z,1.50
2023-03-26T23:58:50.442Z,1.10
